sensor_id;sensor_type;location;lat;lon;timestamp;P1;durP1;ratioP1;P2;durP2;ratioP2
60464;SDS011;46314;52.392;9.758;2023-09-19T00:01:27;2.25;;;1.75;;
60464;SDS011;46314;52.392;9.758;2023-09-19T00:03:55;2.08;;;1.80;;
60464;SDS011;46314;52.392;9.758;2023-09-19T00:06:21;4.85;;;2.25;;
60464;SDS011;46314;52.392;9.758;2023-09-19T00:08:48;3.08;;;1.90;;
60464;SDS011;46314;52.392;9.758;2023-09-19T00:11:14;2.28;;;2.00;;
60464;SDS011;46314;52.392;9.758;2023-09-19T00:13:41;2.80;;;1.92;;
60464;SDS011;46314;52.392;9.758;2023-09-19T00:16:08;3.58;;;1.88;;
60464;SDS011;46314;52.392;9.758;2023-09-19T00:18:36;3.42;;;2.00;;
60464;SDS011;46314;52.392;9.758;2023-09-19T00:21:04;3.72;;;1.77;;
60464;SDS011;46314;52.392;9.758;2023-09-19T00:23:30;4.20;;;2.05;;
60464;SDS011;46314;52.392;9.758;2023-09-19T00:25:58;3.80;;;2.47;;
60464;SDS011;46314;52.392;9.758;2023-09-19T00:28:24;3.00;;;2.05;;
60464;SDS011;46314;52.392;9.758;2023-09-19T00:30:51;4.10;;;2.53;;
60464;SDS011;46314;52.392;9.758;2023-09-19T00:33:17;5.68;;;2.42;;
60464;SDS011;46314;52.392;9.758;2023-09-19T00:35:47;4.72;;;2.47;;
60464;SDS011;46314;52.392;9.758;2023-09-19T00:38:16;2.78;;;2.00;;
60464;SDS011;46314;52.392;9.758;2023-09-19T00:40:43;5.90;;;3.05;;
60464;SDS011;46314;52.392;9.758;2023-09-19T00:43:10;4.25;;;2.67;;
60464;SDS011;46314;52.392;9.758;2023-09-19T00:45:37;3.83;;;3.05;;
60464;SDS011;46314;52.392;9.758;2023-09-19T00:48:04;5.80;;;3.20;;
60464;SDS011;46314;52.392;9.758;2023-09-19T00:50:31;5.25;;;3.10;;
60464;SDS011;46314;52.392;9.758;2023-09-19T00:52:58;3.78;;;2.95;;
60464;SDS011;46314;52.392;9.758;2023-09-19T00:55:26;3.72;;;3.10;;
60464;SDS011;46314;52.392;9.758;2023-09-19T00:57:56;9.88;;;4.03;;
60464;SDS011;46314;52.392;9.758;2023-09-19T01:00:23;6.47;;;3.03;;
60464;SDS011;46314;52.392;9.758;2023-09-19T01:02:51;6.47;;;3.10;;
60464;SDS011;46314;52.392;9.758;2023-09-19T01:05:20;4.20;;;3.50;;
60464;SDS011;46314;52.392;9.758;2023-09-19T01:07:47;7.05;;;3.40;;
60464;SDS011;46314;52.392;9.758;2023-09-19T01:10:14;6.53;;;3.45;;
60464;SDS011;46314;52.392;9.758;2023-09-19T01:12:47;5.65;;;3.47;;
60464;SDS011;46314;52.392;9.758;2023-09-19T01:15:23;3.67;;;2.78;;
60464;SDS011;46314;52.392;9.758;2023-09-19T01:18:00;5.93;;;3.45;;
60464;SDS011;46314;52.392;9.758;2023-09-19T01:20:33;6.60;;;3.05;;
60464;SDS011;46314;52.392;9.758;2023-09-19T01:23:10;6.28;;;4.03;;
60464;SDS011;46314;52.392;9.758;2023-09-19T01:25:50;4.43;;;3.70;;
60464;SDS011;46314;52.392;9.758;2023-09-19T01:28:33;5.82;;;3.63;;
60464;SDS011;46314;52.392;9.758;2023-09-19T01:31:09;5.07;;;3.58;;
60464;SDS011;46314;52.392;9.758;2023-09-19T01:33:56;7.57;;;3.75;;
60464;SDS011;46314;52.392;9.758;2023-09-19T01:36:24;7.82;;;3.65;;
60464;SDS011;46314;52.392;9.758;2023-09-19T01:38:51;6.47;;;4.22;;
60464;SDS011;46314;52.392;9.758;2023-09-19T01:41:20;6.20;;;3.78;;
60464;SDS011;46314;52.392;9.758;2023-09-19T01:43:53;6.35;;;3.60;;
60464;SDS011;46314;52.392;9.758;2023-09-19T01:46:24;6.82;;;3.78;;
60464;SDS011;46314;52.392;9.758;2023-09-19T01:48:58;5.90;;;4.57;;
60464;SDS011;46314;52.392;9.758;2023-09-19T01:51:33;12.02;;;5.07;;
60464;SDS011;46314;52.392;9.758;2023-09-19T01:54:04;4.72;;;3.40;;
60464;SDS011;46314;52.392;9.758;2023-09-19T01:56:37;6.72;;;4.20;;
60464;SDS011;46314;52.392;9.758;2023-09-19T01:59:11;8.02;;;4.45;;
60464;SDS011;46314;52.392;9.758;2023-09-19T02:01:42;6.07;;;3.92;;
60464;SDS011;46314;52.392;9.758;2023-09-19T02:04:11;6.47;;;3.85;;
60464;SDS011;46314;52.392;9.758;2023-09-19T02:06:39;7.53;;;4.45;;
60464;SDS011;46314;52.392;9.758;2023-09-19T02:09:06;8.30;;;4.43;;
60464;SDS011;46314;52.392;9.758;2023-09-19T02:11:32;8.75;;;4.68;;
60464;SDS011;46314;52.392;9.758;2023-09-19T02:13:59;9.07;;;4.40;;
60464;SDS011;46314;52.392;9.758;2023-09-19T02:16:25;6.82;;;4.47;;
60464;SDS011;46314;52.392;9.758;2023-09-19T02:18:53;13.15;;;5.07;;
60464;SDS011;46314;52.392;9.758;2023-09-19T02:21:20;9.13;;;4.63;;
60464;SDS011;46314;52.392;9.758;2023-09-19T02:23:46;7.45;;;4.20;;
60464;SDS011;46314;52.392;9.758;2023-09-19T02:26:13;8.50;;;4.03;;
60464;SDS011;46314;52.392;9.758;2023-09-19T02:28:39;11.23;;;4.88;;
60464;SDS011;46314;52.392;9.758;2023-09-19T02:31:06;4.60;;;4.10;;
60464;SDS011;46314;52.392;9.758;2023-09-19T02:33:32;8.45;;;4.43;;
60464;SDS011;46314;52.392;9.758;2023-09-19T02:36:00;7.10;;;5.10;;
60464;SDS011;46314;52.392;9.758;2023-09-19T02:38:27;6.82;;;4.05;;
60464;SDS011;46314;52.392;9.758;2023-09-19T02:40:54;8.75;;;4.88;;
60464;SDS011;46314;52.392;9.758;2023-09-19T02:43:21;8.45;;;4.30;;
60464;SDS011;46314;52.392;9.758;2023-09-19T02:45:47;8.02;;;5.18;;
60464;SDS011;46314;52.392;9.758;2023-09-19T02:48:14;7.55;;;4.45;;
60464;SDS011;46314;52.392;9.758;2023-09-19T02:50:41;6.10;;;4.47;;
60464;SDS011;46314;52.392;9.758;2023-09-19T02:53:09;7.28;;;4.80;;
60464;SDS011;46314;52.392;9.758;2023-09-19T02:55:36;6.40;;;4.70;;
60464;SDS011;46314;52.392;9.758;2023-09-19T02:58:02;6.78;;;4.47;;
60464;SDS011;46314;52.392;9.758;2023-09-19T03:00:29;12.82;;;4.97;;
60464;SDS011;46314;52.392;9.758;2023-09-19T03:02:56;8.23;;;4.85;;
60464;SDS011;46314;52.392;9.758;2023-09-19T03:05:23;8.27;;;4.55;;
60464;SDS011;46314;52.392;9.758;2023-09-19T03:07:50;9.80;;;5.45;;
60464;SDS011;46314;52.392;9.758;2023-09-19T03:10:18;9.30;;;4.70;;
60464;SDS011;46314;52.392;9.758;2023-09-19T03:12:45;8.32;;;5.03;;
60464;SDS011;46314;52.392;9.758;2023-09-19T03:15:12;13.52;;;5.03;;
60464;SDS011;46314;52.392;9.758;2023-09-19T03:17:40;9.40;;;5.68;;
60464;SDS011;46314;52.392;9.758;2023-09-19T03:20:09;8.88;;;5.53;;
60464;SDS011;46314;52.392;9.758;2023-09-19T03:22:36;11.30;;;4.97;;
60464;SDS011;46314;52.392;9.758;2023-09-19T03:25:03;8.43;;;4.97;;
60464;SDS011;46314;52.392;9.758;2023-09-19T03:27:31;8.65;;;4.20;;
60464;SDS011;46314;52.392;9.758;2023-09-19T03:29:57;6.85;;;4.65;;
60464;SDS011;46314;52.392;9.758;2023-09-19T03:32:24;8.90;;;4.47;;
60464;SDS011;46314;52.392;9.758;2023-09-19T03:34:51;5.75;;;4.25;;
60464;SDS011;46314;52.392;9.758;2023-09-19T03:37:17;9.25;;;4.32;;
60464;SDS011;46314;52.392;9.758;2023-09-19T03:39:44;6.00;;;3.90;;
60464;SDS011;46314;52.392;9.758;2023-09-19T03:42:10;7.38;;;4.45;;
60464;SDS011;46314;52.392;9.758;2023-09-19T03:44:38;9.23;;;4.57;;
60464;SDS011;46314;52.392;9.758;2023-09-19T03:47:05;6.35;;;4.07;;
60464;SDS011;46314;52.392;9.758;2023-09-19T03:49:31;7.88;;;3.78;;
60464;SDS011;46314;52.392;9.758;2023-09-19T03:51:58;7.32;;;3.78;;
60464;SDS011;46314;52.392;9.758;2023-09-19T03:54:24;9.25;;;3.80;;
60464;SDS011;46314;52.392;9.758;2023-09-19T03:56:51;10.48;;;4.53;;
60464;SDS011;46314;52.392;9.758;2023-09-19T03:59:17;7.15;;;4.13;;
60464;SDS011;46314;52.392;9.758;2023-09-19T04:01:45;7.55;;;3.50;;
60464;SDS011;46314;52.392;9.758;2023-09-19T04:04:11;9.82;;;4.10;;
60464;SDS011;46314;52.392;9.758;2023-09-19T04:06:38;8.02;;;2.85;;
60464;SDS011;46314;52.392;9.758;2023-09-19T04:09:04;11.40;;;3.67;;
60464;SDS011;46314;52.392;9.758;2023-09-19T04:11:31;7.07;;;3.10;;
60464;SDS011;46314;52.392;9.758;2023-09-19T04:13:57;7.35;;;3.20;;
60464;SDS011;46314;52.392;9.758;2023-09-19T04:16:24;6.78;;;3.25;;
60464;SDS011;46314;52.392;9.758;2023-09-19T04:18:52;10.88;;;3.65;;
60464;SDS011;46314;52.392;9.758;2023-09-19T04:21:18;7.18;;;3.30;;
60464;SDS011;46314;52.392;9.758;2023-09-19T04:23:45;11.52;;;3.67;;
60464;SDS011;46314;52.392;9.758;2023-09-19T04:26:12;7.43;;;3.33;;
60464;SDS011;46314;52.392;9.758;2023-09-19T04:28:38;8.30;;;3.65;;
60464;SDS011;46314;52.392;9.758;2023-09-19T04:31:05;10.25;;;3.72;;
60464;SDS011;46314;52.392;9.758;2023-09-19T04:33:31;10.75;;;3.63;;
60464;SDS011;46314;52.392;9.758;2023-09-19T04:35:59;8.48;;;3.88;;
60464;SDS011;46314;52.392;9.758;2023-09-19T04:38:40;8.93;;;4.43;;
60464;SDS011;46314;52.392;9.758;2023-09-19T04:41:07;8.15;;;3.80;;
60464;SDS011;46314;52.392;9.758;2023-09-19T04:43:33;11.20;;;4.32;;
60464;SDS011;46314;52.392;9.758;2023-09-19T04:45:59;9.32;;;3.50;;
60464;SDS011;46314;52.392;9.758;2023-09-19T04:48:26;8.35;;;3.80;;
60464;SDS011;46314;52.392;9.758;2023-09-19T04:50:53;6.90;;;3.72;;
60464;SDS011;46314;52.392;9.758;2023-09-19T04:53:20;8.43;;;4.10;;
60464;SDS011;46314;52.392;9.758;2023-09-19T04:55:49;10.02;;;3.97;;
60464;SDS011;46314;52.392;9.758;2023-09-19T04:58:16;7.32;;;4.18;;
60464;SDS011;46314;52.392;9.758;2023-09-19T05:00:43;8.60;;;4.40;;
60464;SDS011;46314;52.392;9.758;2023-09-19T05:03:09;12.52;;;4.15;;
60464;SDS011;46314;52.392;9.758;2023-09-19T05:05:36;7.88;;;3.70;;
60464;SDS011;46314;52.392;9.758;2023-09-19T05:08:03;17.23;;;4.50;;
60464;SDS011;46314;52.392;9.758;2023-09-19T05:10:33;11.35;;;4.40;;
60464;SDS011;46314;52.392;9.758;2023-09-19T05:13:00;9.82;;;4.57;;
60464;SDS011;46314;52.392;9.758;2023-09-19T05:15:26;10.68;;;5.18;;
60464;SDS011;46314;52.392;9.758;2023-09-19T05:17:53;12.55;;;5.40;;
60464;SDS011;46314;52.392;9.758;2023-09-19T05:20:23;10.57;;;5.95;;
60464;SDS011;46314;52.392;9.758;2023-09-19T05:22:50;13.65;;;5.90;;
60464;SDS011;46314;52.392;9.758;2023-09-19T05:25:23;10.90;;;6.55;;
60464;SDS011;46314;52.392;9.758;2023-09-19T05:27:54;13.23;;;6.57;;
60464;SDS011;46314;52.392;9.758;2023-09-19T05:30:20;10.77;;;6.82;;
60464;SDS011;46314;52.392;9.758;2023-09-19T05:32:49;11.25;;;6.72;;
60464;SDS011;46314;52.392;9.758;2023-09-19T05:35:15;11.65;;;6.90;;
60464;SDS011;46314;52.392;9.758;2023-09-19T05:37:42;8.10;;;6.25;;
60464;SDS011;46314;52.392;9.758;2023-09-19T05:40:09;10.05;;;6.07;;
60464;SDS011;46314;52.392;9.758;2023-09-19T05:42:36;10.52;;;6.55;;
60464;SDS011;46314;52.392;9.758;2023-09-19T05:45:04;9.63;;;6.07;;
60464;SDS011;46314;52.392;9.758;2023-09-19T05:47:31;10.32;;;6.72;;
60464;SDS011;46314;52.392;9.758;2023-09-19T05:49:58;12.60;;;6.30;;
60464;SDS011;46314;52.392;9.758;2023-09-19T05:52:24;10.52;;;6.13;;
60464;SDS011;46314;52.392;9.758;2023-09-19T05:54:50;11.27;;;6.78;;
60464;SDS011;46314;52.392;9.758;2023-09-19T05:57:17;12.57;;;6.50;;
60464;SDS011;46314;52.392;9.758;2023-09-19T05:59:43;13.40;;;7.60;;
60464;SDS011;46314;52.392;9.758;2023-09-19T06:02:11;13.73;;;6.78;;
60464;SDS011;46314;52.392;9.758;2023-09-19T06:04:38;13.88;;;6.55;;
60464;SDS011;46314;52.392;9.758;2023-09-19T06:07:04;13.73;;;7.82;;
60464;SDS011;46314;52.392;9.758;2023-09-19T06:09:31;16.92;;;7.00;;
60464;SDS011;46314;52.392;9.758;2023-09-19T06:11:57;12.93;;;7.22;;
60464;SDS011;46314;52.392;9.758;2023-09-19T06:14:24;10.60;;;6.53;;
60464;SDS011;46314;52.392;9.758;2023-09-19T06:16:50;12.30;;;6.88;;
60464;SDS011;46314;52.392;9.758;2023-09-19T06:19:18;17.75;;;6.43;;
60464;SDS011;46314;52.392;9.758;2023-09-19T06:21:45;14.48;;;7.25;;
60464;SDS011;46314;52.392;9.758;2023-09-19T06:24:11;14.50;;;6.85;;
60464;SDS011;46314;52.392;9.758;2023-09-19T06:26:38;8.68;;;6.53;;
60464;SDS011;46314;52.392;9.758;2023-09-19T06:29:04;13.13;;;5.93;;
60464;SDS011;46314;52.392;9.758;2023-09-19T06:31:30;14.57;;;6.38;;
60464;SDS011;46314;52.392;9.758;2023-09-19T06:33:57;10.32;;;5.88;;
60464;SDS011;46314;52.392;9.758;2023-09-19T06:36:25;8.40;;;5.53;;
60464;SDS011;46314;52.392;9.758;2023-09-19T06:38:51;12.95;;;6.28;;
60464;SDS011;46314;52.392;9.758;2023-09-19T06:41:18;10.98;;;6.03;;
60464;SDS011;46314;52.392;9.758;2023-09-19T06:43:44;12.30;;;6.47;;
60464;SDS011;46314;52.392;9.758;2023-09-19T06:46:11;12.60;;;5.78;;
60464;SDS011;46314;52.392;9.758;2023-09-19T06:48:38;10.27;;;6.15;;
60464;SDS011;46314;52.392;9.758;2023-09-19T06:51:04;14.73;;;5.82;;
60464;SDS011;46314;52.392;9.758;2023-09-19T06:53:32;13.07;;;5.63;;
60464;SDS011;46314;52.392;9.758;2023-09-19T06:55:59;8.18;;;5.35;;
60464;SDS011;46314;52.392;9.758;2023-09-19T06:58:25;14.07;;;5.65;;
60464;SDS011;46314;52.392;9.758;2023-09-19T07:00:52;11.82;;;5.90;;
60464;SDS011;46314;52.392;9.758;2023-09-19T07:03:19;11.30;;;5.35;;
60464;SDS011;46314;52.392;9.758;2023-09-19T07:05:46;16.52;;;5.88;;
60464;SDS011;46314;52.392;9.758;2023-09-19T07:08:13;15.63;;;6.50;;
60464;SDS011;46314;52.392;9.758;2023-09-19T07:10:42;11.63;;;5.00;;
60464;SDS011;46314;52.392;9.758;2023-09-19T07:13:08;10.52;;;3.83;;
60464;SDS011;46314;52.392;9.758;2023-09-19T07:15:36;11.98;;;4.80;;
60464;SDS011;46314;52.392;9.758;2023-09-19T07:18:04;9.95;;;3.90;;
60464;SDS011;46314;52.392;9.758;2023-09-19T07:20:31;10.95;;;4.00;;
60464;SDS011;46314;52.392;9.758;2023-09-19T07:22:59;13.30;;;3.88;;
60464;SDS011;46314;52.392;9.758;2023-09-19T07:25:25;9.27;;;3.70;;
60464;SDS011;46314;52.392;9.758;2023-09-19T07:27:53;9.07;;;3.40;;
60464;SDS011;46314;52.392;9.758;2023-09-19T07:30:21;11.73;;;3.90;;
60464;SDS011;46314;52.392;9.758;2023-09-19T07:32:49;9.25;;;3.72;;
60464;SDS011;46314;52.392;9.758;2023-09-19T07:35:15;8.52;;;3.22;;
60464;SDS011;46314;52.392;9.758;2023-09-19T07:37:42;11.55;;;3.03;;
60464;SDS011;46314;52.392;9.758;2023-09-19T07:40:09;7.38;;;3.50;;
60464;SDS011;46314;52.392;9.758;2023-09-19T07:42:36;5.50;;;2.63;;
60464;SDS011;46314;52.392;9.758;2023-09-19T07:45:04;11.05;;;3.47;;
60464;SDS011;46314;52.392;9.758;2023-09-19T07:47:32;8.18;;;3.03;;
60464;SDS011;46314;52.392;9.758;2023-09-19T07:49:58;9.18;;;2.97;;
60464;SDS011;46314;52.392;9.758;2023-09-19T07:52:25;11.77;;;3.08;;
60464;SDS011;46314;52.392;9.758;2023-09-19T07:54:52;8.57;;;3.33;;
60464;SDS011;46314;52.392;9.758;2023-09-19T07:57:18;7.22;;;2.63;;
60464;SDS011;46314;52.392;9.758;2023-09-19T07:59:45;11.52;;;3.35;;
60464;SDS011;46314;52.392;9.758;2023-09-19T08:02:13;13.70;;;3.88;;
60464;SDS011;46314;52.392;9.758;2023-09-19T08:04:39;8.75;;;3.00;;
60464;SDS011;46314;52.392;9.758;2023-09-19T08:07:06;9.27;;;3.05;;
60464;SDS011;46314;52.392;9.758;2023-09-19T08:09:33;7.25;;;3.42;;
60464;SDS011;46314;52.392;9.758;2023-09-19T08:11:59;8.73;;;2.88;;
60464;SDS011;46314;52.392;9.758;2023-09-19T08:14:26;10.27;;;3.10;;
60464;SDS011;46314;52.392;9.758;2023-09-19T08:16:55;8.80;;;3.08;;
60464;SDS011;46314;52.392;9.758;2023-09-19T08:19:24;7.97;;;2.92;;
60464;SDS011;46314;52.392;9.758;2023-09-19T08:21:51;5.93;;;2.78;;
60464;SDS011;46314;52.392;9.758;2023-09-19T08:24:17;7.25;;;2.75;;
60464;SDS011;46314;52.392;9.758;2023-09-19T08:26:43;9.27;;;3.33;;
60464;SDS011;46314;52.392;9.758;2023-09-19T08:29:10;11.10;;;3.38;;
60464;SDS011;46314;52.392;9.758;2023-09-19T08:31:36;8.32;;;3.17;;
60464;SDS011;46314;52.392;9.758;2023-09-19T08:34:03;7.53;;;3.13;;
60464;SDS011;46314;52.392;9.758;2023-09-19T08:36:31;9.63;;;3.00;;
60464;SDS011;46314;52.392;9.758;2023-09-19T08:38:57;6.20;;;2.72;;
60464;SDS011;46314;52.392;9.758;2023-09-19T08:41:24;8.40;;;3.20;;
60464;SDS011;46314;52.392;9.758;2023-09-19T08:43:50;6.60;;;2.38;;
60464;SDS011;46314;52.392;9.758;2023-09-19T08:46:20;11.70;;;3.03;;
60464;SDS011;46314;52.392;9.758;2023-09-19T08:49:03;5.85;;;2.60;;
60464;SDS011;46314;52.392;9.758;2023-09-19T08:51:39;5.70;;;2.20;;
60464;SDS011;46314;52.392;9.758;2023-09-19T08:54:08;8.13;;;3.30;;
60464;SDS011;46314;52.392;9.758;2023-09-19T08:56:37;7.70;;;2.40;;
60464;SDS011;46314;52.392;9.758;2023-09-19T08:59:06;8.82;;;2.80;;
60464;SDS011;46314;52.392;9.758;2023-09-19T09:01:33;9.10;;;2.85;;
60464;SDS011;46314;52.392;9.758;2023-09-19T09:04:01;7.70;;;2.72;;
60464;SDS011;46314;52.392;9.758;2023-09-19T09:06:28;9.35;;;2.83;;
60464;SDS011;46314;52.392;9.758;2023-09-19T09:08:57;5.43;;;2.72;;
60464;SDS011;46314;52.392;9.758;2023-09-19T09:11:23;7.45;;;2.42;;
60464;SDS011;46314;52.392;9.758;2023-09-19T09:13:50;8.25;;;3.03;;
60464;SDS011;46314;52.392;9.758;2023-09-19T09:16:17;10.32;;;2.28;;
60464;SDS011;46314;52.392;9.758;2023-09-19T09:18:43;8.52;;;3.00;;
60464;SDS011;46314;52.392;9.758;2023-09-19T09:21:10;8.48;;;3.22;;
60464;SDS011;46314;52.392;9.758;2023-09-19T09:23:39;8.52;;;3.10;;
60464;SDS011;46314;52.392;9.758;2023-09-19T09:26:07;6.82;;;2.95;;
60464;SDS011;46314;52.392;9.758;2023-09-19T09:28:34;6.32;;;2.50;;
60464;SDS011;46314;52.392;9.758;2023-09-19T09:31:01;8.10;;;3.53;;
60464;SDS011;46314;52.392;9.758;2023-09-19T09:33:28;7.90;;;2.90;;
60464;SDS011;46314;52.392;9.758;2023-09-19T09:35:55;6.88;;;2.83;;
60464;SDS011;46314;52.392;9.758;2023-09-19T09:38:24;7.60;;;2.78;;
60464;SDS011;46314;52.392;9.758;2023-09-19T09:40:52;7.78;;;3.03;;
60464;SDS011;46314;52.392;9.758;2023-09-19T09:43:27;7.30;;;2.67;;
60464;SDS011;46314;52.392;9.758;2023-09-19T09:46:08;8.27;;;2.40;;
60464;SDS011;46314;52.392;9.758;2023-09-19T09:48:36;7.45;;;2.60;;
60464;SDS011;46314;52.392;9.758;2023-09-19T09:51:03;10.15;;;3.75;;
60464;SDS011;46314;52.392;9.758;2023-09-19T09:53:29;5.75;;;2.72;;
60464;SDS011;46314;52.392;9.758;2023-09-19T09:55:57;6.85;;;2.47;;
60464;SDS011;46314;52.392;9.758;2023-09-19T09:58:26;6.50;;;2.85;;
60464;SDS011;46314;52.392;9.758;2023-09-19T10:00:53;8.15;;;2.60;;
60464;SDS011;46314;52.392;9.758;2023-09-19T10:03:20;7.18;;;2.85;;
60464;SDS011;46314;52.392;9.758;2023-09-19T10:05:47;8.50;;;3.08;;
60464;SDS011;46314;52.392;9.758;2023-09-19T10:08:19;5.05;;;2.33;;
60464;SDS011;46314;52.392;9.758;2023-09-19T10:10:46;7.05;;;2.70;;
60464;SDS011;46314;52.392;9.758;2023-09-19T10:13:13;10.50;;;3.58;;
60464;SDS011;46314;52.392;9.758;2023-09-19T10:15:42;9.85;;;3.50;;
60464;SDS011;46314;52.392;9.758;2023-09-19T10:18:10;9.80;;;2.83;;
60464;SDS011;46314;52.392;9.758;2023-09-19T10:20:37;10.50;;;2.90;;
60464;SDS011;46314;52.392;9.758;2023-09-19T10:23:05;7.85;;;3.10;;
60464;SDS011;46314;52.392;9.758;2023-09-19T10:25:33;7.40;;;3.00;;
60464;SDS011;46314;52.392;9.758;2023-09-19T10:28:03;9.57;;;2.72;;
60464;SDS011;46314;52.392;9.758;2023-09-19T10:30:32;7.07;;;2.85;;
60464;SDS011;46314;52.392;9.758;2023-09-19T10:33:04;7.60;;;2.80;;
60464;SDS011;46314;52.392;9.758;2023-09-19T10:35:31;14.18;;;3.30;;
60464;SDS011;46314;52.392;9.758;2023-09-19T10:37:59;9.23;;;3.25;;
60464;SDS011;46314;52.392;9.758;2023-09-19T10:40:27;8.90;;;2.85;;
60464;SDS011;46314;52.392;9.758;2023-09-19T10:42:54;9.98;;;3.28;;
60464;SDS011;46314;52.392;9.758;2023-09-19T10:45:25;7.57;;;3.28;;
60464;SDS011;46314;52.392;9.758;2023-09-19T10:47:54;8.73;;;2.95;;
60464;SDS011;46314;52.392;9.758;2023-09-19T10:50:22;8.30;;;3.30;;
60464;SDS011;46314;52.392;9.758;2023-09-19T10:52:50;6.68;;;3.42;;
60464;SDS011;46314;52.392;9.758;2023-09-19T10:55:19;8.43;;;4.07;;
60464;SDS011;46314;52.392;9.758;2023-09-19T10:57:46;7.15;;;3.22;;
60464;SDS011;46314;52.392;9.758;2023-09-19T11:00:13;5.85;;;3.13;;
60464;SDS011;46314;52.392;9.758;2023-09-19T11:02:41;7.25;;;3.22;;
60464;SDS011;46314;52.392;9.758;2023-09-19T11:05:11;7.43;;;2.83;;
60464;SDS011;46314;52.392;9.758;2023-09-19T11:13:26;7.95;;;2.92;;
60464;SDS011;46314;52.392;9.758;2023-09-19T11:16:03;9.20;;;3.65;;
60464;SDS011;46314;52.392;9.758;2023-09-19T11:21:38;9.00;;;2.95;;
60464;SDS011;46314;52.392;9.758;2023-09-19T11:24:29;8.65;;;3.40;;
60464;SDS011;46314;52.392;9.758;2023-09-19T11:27:14;10.05;;;3.38;;
60464;SDS011;46314;52.392;9.758;2023-09-19T11:29:41;8.13;;;3.15;;
60464;SDS011;46314;52.392;9.758;2023-09-19T11:32:07;7.47;;;2.67;;
60464;SDS011;46314;52.392;9.758;2023-09-19T11:34:37;8.90;;;3.10;;
60464;SDS011;46314;52.392;9.758;2023-09-19T11:40:32;9.50;;;2.80;;
60464;SDS011;46314;52.392;9.758;2023-09-19T11:42:58;7.38;;;3.40;;
60464;SDS011;46314;52.392;9.758;2023-09-19T11:48:43;8.80;;;3.25;;
60464;SDS011;46314;52.392;9.758;2023-09-19T11:51:17;5.60;;;3.03;;
60464;SDS011;46314;52.392;9.758;2023-09-19T11:53:45;7.38;;;2.85;;
60464;SDS011;46314;52.392;9.758;2023-09-19T11:56:13;8.02;;;2.78;;
60464;SDS011;46314;52.392;9.758;2023-09-19T11:58:41;6.72;;;2.80;;
60464;SDS011;46314;52.392;9.758;2023-09-19T12:01:09;8.95;;;3.72;;
60464;SDS011;46314;52.392;9.758;2023-09-19T12:03:40;9.70;;;3.13;;
60464;SDS011;46314;52.392;9.758;2023-09-19T12:06:11;7.47;;;2.83;;
60464;SDS011;46314;52.392;9.758;2023-09-19T12:08:39;7.75;;;2.45;;
60464;SDS011;46314;52.392;9.758;2023-09-19T12:11:05;5.40;;;2.67;;
60464;SDS011;46314;52.392;9.758;2023-09-19T12:13:33;8.05;;;3.20;;
60464;SDS011;46314;52.392;9.758;2023-09-19T12:16:00;8.73;;;3.00;;
60464;SDS011;46314;52.392;9.758;2023-09-19T12:18:27;8.75;;;3.20;;
60464;SDS011;46314;52.392;9.758;2023-09-19T12:20:53;10.70;;;3.25;;
60464;SDS011;46314;52.392;9.758;2023-09-19T12:23:20;9.02;;;3.03;;
60464;SDS011;46314;52.392;9.758;2023-09-19T12:25:46;11.00;;;2.97;;
60464;SDS011;46314;52.392;9.758;2023-09-19T12:28:13;7.18;;;3.15;;
60464;SDS011;46314;52.392;9.758;2023-09-19T12:30:41;7.50;;;3.00;;
60464;SDS011;46314;52.392;9.758;2023-09-19T12:33:14;8.32;;;3.10;;
60464;SDS011;46314;52.392;9.758;2023-09-19T12:35:42;7.55;;;3.63;;
60464;SDS011;46314;52.392;9.758;2023-09-19T12:38:08;9.20;;;3.55;;
60464;SDS011;46314;52.392;9.758;2023-09-19T12:40:35;12.07;;;3.70;;
60464;SDS011;46314;52.392;9.758;2023-09-19T12:43:02;7.75;;;2.80;;
60464;SDS011;46314;52.392;9.758;2023-09-19T12:45:29;8.32;;;3.00;;
60464;SDS011;46314;52.392;9.758;2023-09-19T12:50:59;7.38;;;3.70;;
60464;SDS011;46314;52.392;9.758;2023-09-19T12:53:29;9.77;;;3.67;;
60464;SDS011;46314;52.392;9.758;2023-09-19T12:55:59;8.30;;;3.75;;
60464;SDS011;46314;52.392;9.758;2023-09-19T12:58:26;7.75;;;2.88;;
60464;SDS011;46314;52.392;9.758;2023-09-19T13:00:53;7.05;;;2.90;;
60464;SDS011;46314;52.392;9.758;2023-09-19T13:03:26;6.15;;;2.97;;
60464;SDS011;46314;52.392;9.758;2023-09-19T13:05:54;9.52;;;3.05;;
60464;SDS011;46314;52.392;9.758;2023-09-19T13:08:22;5.82;;;3.28;;
60464;SDS011;46314;52.392;9.758;2023-09-19T13:11:03;10.38;;;3.58;;
60464;SDS011;46314;52.392;9.758;2023-09-19T13:13:34;13.60;;;4.18;;
60464;SDS011;46314;52.392;9.758;2023-09-19T13:16:01;8.77;;;2.80;;
60464;SDS011;46314;52.392;9.758;2023-09-19T13:18:30;7.65;;;3.42;;
60464;SDS011;46314;52.392;9.758;2023-09-19T13:21:06;9.10;;;3.47;;
60464;SDS011;46314;52.392;9.758;2023-09-19T13:23:32;10.38;;;3.88;;
60464;SDS011;46314;52.392;9.758;2023-09-19T13:25:59;10.77;;;4.35;;
60464;SDS011;46314;52.392;9.758;2023-09-19T13:28:25;10.73;;;3.13;;
60464;SDS011;46314;52.392;9.758;2023-09-19T13:30:52;8.98;;;3.30;;
60464;SDS011;46314;52.392;9.758;2023-09-19T13:33:19;8.43;;;3.83;;
60464;SDS011;46314;52.392;9.758;2023-09-19T13:35:46;9.60;;;3.55;;
60464;SDS011;46314;52.392;9.758;2023-09-19T13:38:13;5.75;;;3.50;;
60464;SDS011;46314;52.392;9.758;2023-09-19T13:40:40;6.38;;;2.97;;
60464;SDS011;46314;52.392;9.758;2023-09-19T13:43:07;7.63;;;3.17;;
60464;SDS011;46314;52.392;9.758;2023-09-19T13:45:33;7.82;;;4.32;;
60464;SDS011;46314;52.392;9.758;2023-09-19T13:48:00;7.65;;;3.60;;
60464;SDS011;46314;52.392;9.758;2023-09-19T13:50:26;5.40;;;2.88;;
60464;SDS011;46314;52.392;9.758;2023-09-19T13:52:54;10.00;;;2.80;;
60464;SDS011;46314;52.392;9.758;2023-09-19T13:55:21;11.20;;;3.10;;
60464;SDS011;46314;52.392;9.758;2023-09-19T13:57:48;7.13;;;3.25;;
60464;SDS011;46314;52.392;9.758;2023-09-19T14:00:14;7.70;;;2.95;;
60464;SDS011;46314;52.392;9.758;2023-09-19T14:02:41;6.18;;;3.00;;
60464;SDS011;46314;52.392;9.758;2023-09-19T14:05:08;9.23;;;3.53;;
60464;SDS011;46314;52.392;9.758;2023-09-19T14:07:35;8.15;;;3.13;;
60464;SDS011;46314;52.392;9.758;2023-09-19T14:10:03;7.72;;;3.25;;
60464;SDS011;46314;52.392;9.758;2023-09-19T14:12:30;7.65;;;3.60;;
60464;SDS011;46314;52.392;9.758;2023-09-19T14:14:56;6.57;;;3.33;;
60464;SDS011;46314;52.392;9.758;2023-09-19T14:17:23;6.40;;;3.10;;
60464;SDS011;46314;52.392;9.758;2023-09-19T14:19:49;6.63;;;3.58;;
60464;SDS011;46314;52.392;9.758;2023-09-19T14:22:16;7.38;;;3.08;;
60464;SDS011;46314;52.392;9.758;2023-09-19T14:24:42;13.90;;;3.65;;
60464;SDS011;46314;52.392;9.758;2023-09-19T14:27:10;4.25;;;2.70;;
60464;SDS011;46314;52.392;9.758;2023-09-19T14:29:37;6.20;;;2.92;;
60464;SDS011;46314;52.392;9.758;2023-09-19T14:32:03;7.03;;;3.10;;
60464;SDS011;46314;52.392;9.758;2023-09-19T14:34:31;6.32;;;2.63;;
60464;SDS011;46314;52.392;9.758;2023-09-19T14:36:57;6.80;;;2.72;;
60464;SDS011;46314;52.392;9.758;2023-09-19T14:39:24;6.47;;;3.00;;
60464;SDS011;46314;52.392;9.758;2023-09-19T14:41:50;6.80;;;3.17;;
60464;SDS011;46314;52.392;9.758;2023-09-19T14:44:18;8.18;;;3.35;;
60464;SDS011;46314;52.392;9.758;2023-09-19T14:46:45;8.73;;;3.25;;
60464;SDS011;46314;52.392;9.758;2023-09-19T14:49:12;6.70;;;3.33;;
60464;SDS011;46314;52.392;9.758;2023-09-19T14:51:38;7.68;;;3.25;;
60464;SDS011;46314;52.392;9.758;2023-09-19T14:54:05;8.90;;;3.50;;
60464;SDS011;46314;52.392;9.758;2023-09-19T14:56:31;10.07;;;3.22;;
60464;SDS011;46314;52.392;9.758;2023-09-19T14:58:58;5.68;;;2.88;;
60464;SDS011;46314;52.392;9.758;2023-09-19T15:01:26;5.03;;;2.95;;
60464;SDS011;46314;52.392;9.758;2023-09-19T15:03:52;8.85;;;3.42;;
60464;SDS011;46314;52.392;9.758;2023-09-19T15:06:19;7.82;;;2.60;;
60464;SDS011;46314;52.392;9.758;2023-09-19T15:08:47;7.35;;;3.10;;